createdAt,value
2017-10-21T00:03:57.458Z,0
2017-10-21T00:13:57.396Z,0
2017-10-21T00:23:57.529Z,0
2017-10-21T00:33:57.417Z,0
2017-10-21T00:43:57.583Z,0
2017-10-21T00:53:57.384Z,0
2017-10-21T01:03:57.386Z,0
2017-10-21T01:13:57.473Z,0
2017-10-21T01:23:57.393Z,0
2017-10-21T01:33:57.404Z,0
2017-10-21T01:43:57.420Z,0
2017-10-21T01:53:57.951Z,0
2017-10-21T02:03:57.436Z,0
2017-10-21T02:13:57.424Z,0
2017-10-21T02:23:57.522Z,0
2017-10-21T02:33:57.496Z,0
2017-10-21T02:43:57.517Z,0
2017-10-21T02:53:57.477Z,0
2017-10-21T03:03:57.435Z,0
2017-10-21T03:13:57.471Z,0
2017-10-21T03:23:57.438Z,0
2017-10-21T03:33:57.387Z,0
2017-10-21T03:43:57.471Z,0
2017-10-21T03:53:57.423Z,0
2017-10-21T04:03:57.468Z,0
2017-10-21T04:13:57.448Z,0
2017-10-21T04:23:57.463Z,0
2017-10-21T04:33:57.499Z,0
2017-10-21T04:43:57.425Z,0
2017-10-21T04:53:57.525Z,0
2017-10-21T05:03:57.455Z,0
2017-10-21T05:13:57.465Z,0
2017-10-21T05:23:57.468Z,0
2017-10-21T05:33:57.488Z,0
2017-10-21T05:43:57.410Z,0
2017-10-21T05:53:57.471Z,0
2017-10-21T06:03:57.431Z,0
2017-10-21T06:13:57.514Z,5
2017-10-21T06:23:57.438Z,10
2017-10-21T06:33:57.476Z,20
2017-10-21T06:43:57.449Z,25
2017-10-21T06:53:57.426Z,35
2017-10-21T07:03:57.390Z,45
2017-10-21T07:13:57.475Z,35
2017-10-21T07:23:57.410Z,40
2017-10-21T07:33:57.458Z,25
2017-10-21T07:44:09.855Z,40
2017-10-21T07:53:57.454Z,35
2017-10-21T08:03:57.522Z,40
2017-10-21T08:13:57.534Z,50
2017-10-21T08:23:57.749Z,50
2017-10-21T08:33:57.614Z,40
2017-10-21T08:43:58.223Z,35
2017-10-21T08:53:57.510Z,30
2017-10-21T09:03:57.467Z,55
2017-10-21T09:13:57.507Z,50
2017-10-21T09:23:57.585Z,55
2017-10-21T09:33:57.424Z,45
2017-10-21T09:43:59.207Z,70
2017-10-21T09:53:57.503Z,50
2017-10-21T10:03:57.513Z,60
2017-10-21T10:13:57.557Z,55
2017-10-21T10:23:57.524Z,45
2017-10-21T10:33:58.490Z,40
2017-10-21T10:43:57.435Z,50
2017-10-21T10:53:57.407Z,110
2017-10-21T11:03:57.561Z,90
2017-10-21T11:13:57.551Z,85
2017-10-21T11:23:57.502Z,60
2017-10-21T11:33:57.440Z,50
2017-10-21T11:43:57.449Z,100
2017-10-21T11:53:57.483Z,55
2017-10-21T12:03:57.390Z,145
2017-10-21T12:13:57.416Z,140
2017-10-21T12:23:57.383Z,130
2017-10-21T12:33:57.560Z,90
2017-10-21T12:43:57.472Z,80
2017-10-21T12:53:57.568Z,95
2017-10-21T13:10:25.764Z,90
2017-10-21T13:13:57.734Z,85
2017-10-21T13:23:57.569Z,95
2017-10-21T13:33:58.183Z,90
2017-10-21T13:43:57.457Z,120
2017-10-21T13:53:57.405Z,100
2017-10-21T14:03:57.479Z,65
2017-10-21T14:13:57.672Z,95
2017-10-21T14:23:59.488Z,70
2017-10-21T14:33:57.458Z,80
2017-10-21T14:43:57.434Z,75
2017-10-21T14:53:58.488Z,30
2017-10-21T15:03:57.578Z,10
2017-10-21T15:13:59.060Z,80
2017-10-21T15:23:58.921Z,40
2017-10-21T15:33:57.421Z,25
2017-10-21T15:43:57.500Z,20
2017-10-21T15:53:57.483Z,15
2017-10-21T16:03:57.436Z,10
2017-10-21T16:13:57.465Z,10
2017-10-21T16:23:57.422Z,0
2017-10-21T16:33:57.520Z,0
2017-10-21T16:43:57.454Z,0
2017-10-21T16:53:57.505Z,0
2017-10-21T17:03:57.497Z,0
2017-10-21T17:13:57.535Z,0
2017-10-21T17:23:57.403Z,0
2017-10-21T17:33:57.456Z,0
2017-10-21T17:43:57.430Z,0
2017-10-21T17:53:57.490Z,0
2017-10-21T18:03:57.435Z,0
2017-10-21T18:13:57.445Z,0
2017-10-21T18:23:57.527Z,0
2017-10-21T18:34:00.076Z,0
2017-10-21T18:43:57.496Z,0
2017-10-21T18:53:57.473Z,0
2017-10-21T19:03:57.419Z,0
2017-10-21T19:13:57.481Z,0
2017-10-21T19:23:57.434Z,0
2017-10-21T19:33:57.396Z,0
2017-10-21T19:43:57.484Z,0
2017-10-21T19:53:57.426Z,0
2017-10-21T20:03:57.513Z,0
2017-10-21T20:13:57.487Z,0
2017-10-21T20:23:57.443Z,0
2017-10-21T20:33:57.475Z,0
2017-10-21T20:43:57.447Z,0
2017-10-21T20:53:57.442Z,0
2017-10-21T21:03:57.477Z,0
2017-10-21T21:13:57.376Z,0
2017-10-21T21:23:57.511Z,0
2017-10-21T21:33:57.473Z,0
2017-10-21T21:43:57.817Z,0
2017-10-21T21:53:57.504Z,0
2017-10-21T22:03:57.456Z,0
2017-10-21T22:13:57.398Z,0
2017-10-21T22:23:57.436Z,0
2017-10-21T22:33:57.774Z,0
2017-10-21T22:43:57.496Z,0
2017-10-21T22:53:57.456Z,0
2017-10-21T23:03:57.401Z,0
2017-10-21T23:13:57.528Z,0
2017-10-21T23:23:57.469Z,0
2017-10-21T23:33:57.489Z,0
2017-10-21T23:43:57.717Z,0
2017-10-21T23:53:57.417Z,0
